createdAt,value
2018-09-03T00:01:34.963Z,99955.69
2018-09-03T00:03:10.415Z,99955.13
2018-09-03T00:04:45.871Z,99947.44
2018-09-03T00:06:21.384Z,99939.98
2018-09-03T00:07:56.934Z,99937.93
2018-09-03T00:09:37.886Z,99944.38
2018-09-03T00:11:13.312Z,99938.59
2018-09-03T00:12:48.748Z,99940.65
2018-09-03T00:14:24.200Z,99937.85
2018-09-03T00:15:59.623Z,99936.52
2018-09-03T00:17:35.033Z,99942.59
2018-09-03T00:19:10.480Z,99937.97
2018-09-03T00:20:47.229Z,99933.80
2018-09-03T00:22:22.911Z,99934.42
2018-09-03T00:23:58.331Z,99929.03
2018-09-03T00:25:33.753Z,99925.70
2018-09-03T00:27:09.233Z,99915.74
2018-09-03T00:28:44.662Z,99920.77
2018-09-03T00:30:20.095Z,99924.16
2018-09-03T00:32:01.110Z,99928.24
2018-09-03T00:33:41.844Z,99922.23
2018-09-03T00:35:22.632Z,99920.06
2018-09-03T00:37:03.452Z,99913.08
2018-09-03T00:38:44.169Z,99918.64
2018-09-03T00:40:24.902Z,99928.16
2018-09-03T00:42:05.728Z,99930.38
2018-09-03T00:43:46.585Z,99933.18
2018-09-03T00:45:27.533Z,99931.22
2018-09-03T00:47:06.447Z,99932.06
2018-09-03T00:48:41.968Z,99936.95
2018-09-03T00:50:17.398Z,99901.47
2018-09-03T00:51:52.853Z,99934.23
2018-09-03T00:53:29.932Z,99939.69
2018-09-03T00:55:05.417Z,99940.83
2018-09-03T00:56:40.863Z,99943.52
2018-09-03T00:58:20.064Z,99941.20
2018-09-03T00:59:55.488Z,99944.06
2018-09-03T01:01:30.949Z,99947.80
2018-09-03T01:03:06.573Z,99947.45
2018-09-03T01:04:42.027Z,99943.66
2018-09-03T01:06:17.548Z,99947.80
2018-09-03T01:07:53.099Z,99942.52
2018-09-03T01:09:28.670Z,99951.01
2018-09-03T01:11:04.145Z,99944.42
2018-09-03T01:12:39.627Z,99941.70
2018-09-03T01:14:15.136Z,99947.21
2018-09-03T01:15:51.403Z,99948.05
2018-09-03T01:17:26.828Z,99946.30
2018-09-03T01:19:02.381Z,99947.26
2018-09-03T01:20:37.809Z,99945.69
2018-09-03T01:22:13.299Z,99941.26
2018-09-03T01:23:48.759Z,99939.67
2018-09-03T01:25:24.168Z,99889.70
2018-09-03T01:26:59.581Z,99941.44
2018-09-03T01:28:35.297Z,99942.83
2018-09-03T01:30:10.691Z,99936.29
2018-09-03T01:31:46.177Z,99936.65
2018-09-03T01:33:21.633Z,99946.66
2018-09-03T01:34:57.142Z,99945.13
2018-09-03T01:36:32.561Z,99942.11
2018-09-03T01:38:08.039Z,99941.80
2018-09-03T01:39:43.893Z,99939.49
2018-09-03T01:41:20.014Z,99934.47
2018-09-03T01:42:55.453Z,99933.14
2018-09-03T01:44:31.195Z,99933.63
2018-09-03T01:46:06.642Z,99925.70
2018-09-03T01:47:42.517Z,99925.22
2018-09-03T01:49:18.014Z,99928.66
2018-09-03T01:50:53.501Z,99927.41
2018-09-03T01:52:28.939Z,99921.98
2018-09-03T01:54:04.446Z,99917.70
2018-09-03T01:55:39.874Z,99919.92
2018-09-03T01:57:15.338Z,99920.10
2018-09-03T01:58:50.790Z,99922.82
2018-09-03T02:00:26.361Z,99920.16
2018-09-03T02:02:01.789Z,99914.95
2018-09-03T02:03:37.220Z,99907.38
2018-09-03T02:05:12.708Z,99908.55
2018-09-03T02:06:48.201Z,99905.62
2018-09-03T02:08:23.676Z,99901.39
2018-09-03T02:09:59.120Z,99896.28
2018-09-03T02:11:35.101Z,99894.84
2018-09-03T02:13:10.585Z,99887.97
2018-09-03T02:14:46.026Z,99888.46
2018-09-03T02:16:21.473Z,99887.97
2018-09-03T02:17:56.912Z,99884.77
2018-09-03T02:19:32.401Z,99886.10
2018-09-03T02:21:08.268Z,99892.95
2018-09-03T02:22:44.130Z,99892.17
2018-09-03T02:24:19.602Z,99889.05
2018-09-03T02:25:55.064Z,99885.83
2018-09-03T02:27:31.114Z,99892.94
2018-09-03T02:29:06.752Z,99882.77
2018-09-03T02:30:42.237Z,99885.83
2018-09-03T02:32:17.686Z,99880.34
2018-09-03T02:33:53.181Z,99883.12
2018-09-03T02:35:28.647Z,99883.92
2018-09-03T02:37:04.083Z,99881.56
2018-09-03T02:38:40.373Z,99876.28
2018-09-03T02:40:16.795Z,99874.98
2018-09-03T02:41:52.241Z,99875.99
2018-09-03T02:43:27.752Z,99864.31
2018-09-03T02:45:03.241Z,99863.81
2018-09-03T02:46:38.679Z,99864.98
2018-09-03T02:48:14.109Z,99862.31
2018-09-03T02:49:49.555Z,99865.03
2018-09-03T02:51:24.993Z,99853.25
2018-09-03T02:53:00.763Z,99857.29
2018-09-03T02:54:36.577Z,99861.03
2018-09-03T02:56:12.057Z,99864.19
2018-09-03T02:57:47.500Z,99864.98
2018-09-03T02:59:22.969Z,99857.34
2018-09-03T03:00:58.408Z,99851.75
2018-09-03T03:02:33.895Z,99851.03
2018-09-03T03:04:09.382Z,99855.34
2018-09-03T03:05:51.397Z,99860.77
2018-09-03T03:07:27.517Z,99855.46
2018-09-03T03:09:03.703Z,99858.05
2018-09-03T03:10:39.148Z,99852.23
2018-09-03T03:12:18.762Z,99843.73
2018-09-03T03:13:54.316Z,99837.35
2018-09-03T03:15:29.749Z,99839.17
2018-09-03T03:17:05.575Z,99817.58
2018-09-03T03:18:41.088Z,99828.02
2018-09-03T03:20:16.497Z,99826.37
2018-09-03T03:21:51.920Z,99829.79
2018-09-03T03:23:27.444Z,99831.13
2018-09-03T03:25:02.940Z,99828.50
2018-09-03T03:26:38.415Z,99825.35
2018-09-03T03:28:13.872Z,99829.57
2018-09-03T03:29:49.365Z,99820.64
2018-09-03T03:31:25.504Z,99808.47
2018-09-03T03:33:00.966Z,99776.89
2018-09-03T03:34:36.433Z,99812.86
2018-09-03T03:36:11.918Z,99811.67
2018-09-03T03:37:47.941Z,99808.52
2018-09-03T03:39:23.445Z,99811.25
2018-09-03T03:40:59.515Z,99815.77
2018-09-03T03:42:35.041Z,99810.44
2018-09-03T03:44:10.484Z,99811.13
2018-09-03T03:45:45.945Z,99802.44
2018-09-03T03:47:21.570Z,99806.41
2018-09-03T03:48:57.027Z,99801.70
2018-09-03T03:50:33.689Z,99793.88
2018-09-03T03:52:09.167Z,99784.05
2018-09-03T03:53:44.638Z,99780.37
2018-09-03T03:55:20.161Z,99793.49
2018-09-03T03:56:55.565Z,99794.38
2018-09-03T03:58:30.981Z,99791.53
2018-09-03T04:00:06.841Z,99795.70
2018-09-03T04:01:42.374Z,99797.42
2018-09-03T04:03:17.884Z,99802.75
2018-09-03T04:04:53.392Z,99794.45
2018-09-03T04:06:28.905Z,99790.28
2018-09-03T04:08:04.362Z,99797.07
2018-09-03T04:09:40.641Z,99721.66
2018-09-03T04:11:16.097Z,99793.53
2018-09-03T04:12:57.992Z,99799.49
2018-09-03T04:14:33.434Z,99805.48
2018-09-03T04:16:09.882Z,99800.72
2018-09-03T04:17:45.397Z,99803.36
2018-09-03T04:19:20.860Z,99808.65
2018-09-03T04:20:56.599Z,99815.88
2018-09-03T04:22:32.871Z,99817.21
2018-09-03T04:24:09.301Z,99823.62
2018-09-03T04:25:45.058Z,99806.47
2018-09-03T04:27:20.479Z,99820.59
2018-09-03T04:28:56.349Z,99819.84
2018-09-03T04:30:31.685Z,99822.44
2018-09-03T04:32:07.166Z,99819.77
2018-09-03T04:33:42.573Z,99821.25
2018-09-03T04:35:18.085Z,99820.68
2018-09-03T04:36:53.899Z,99824.95
2018-09-03T04:38:29.379Z,99823.17
2018-09-03T04:40:04.845Z,99825.70
2018-09-03T04:41:40.304Z,99824.38
2018-09-03T04:43:16.861Z,99819.73
2018-09-03T04:44:53.177Z,99815.97
2018-09-03T04:46:29.130Z,99811.00
2018-09-03T04:48:04.639Z,99800.61
2018-09-03T04:49:40.105Z,99803.56
2018-09-03T04:51:15.725Z,99798.29
2018-09-03T04:52:51.351Z,99791.00
2018-09-03T04:54:26.815Z,99800.75
2018-09-03T04:56:02.361Z,99799.73
2018-09-03T04:57:37.896Z,99798.16
2018-09-03T04:59:13.414Z,99796.33
2018-09-03T05:00:49.234Z,99801.22
2018-09-03T05:02:24.707Z,99811.76
2018-09-03T05:04:00.428Z,99820.23
2018-09-03T05:05:35.844Z,99820.59
2018-09-03T05:07:11.967Z,99806.64
2018-09-03T05:08:47.580Z,99811.44
2018-09-03T05:10:24.090Z,99812.24
2018-09-03T05:12:00.040Z,99820.77
2018-09-03T05:13:35.930Z,99828.59
2018-09-03T05:15:16.912Z,99828.14
2018-09-03T05:16:53.798Z,99827.00
2018-09-03T05:18:29.267Z,99824.23
2018-09-03T05:20:07.835Z,99824.24
2018-09-03T05:21:43.813Z,99819.17
2018-09-03T05:23:19.423Z,99809.70
2018-09-03T05:24:54.972Z,99801.56
2018-09-03T05:26:30.481Z,99805.77
2018-09-03T05:28:05.942Z,99815.09
2018-09-03T05:29:41.452Z,99798.33
2018-09-03T05:31:18.165Z,99806.72
2018-09-03T05:32:53.738Z,99806.23
2018-09-03T05:34:29.183Z,99802.44
2018-09-03T05:36:04.686Z,99802.46
2018-09-03T05:37:40.184Z,99796.60
2018-09-03T05:39:15.647Z,99796.45
2018-09-03T05:40:51.127Z,99790.95
2018-09-03T05:42:26.565Z,99795.09
2018-09-03T05:44:02.151Z,99786.95
2018-09-03T05:45:37.612Z,99786.00
2018-09-03T05:47:13.340Z,99787.79
2018-09-03T05:48:48.807Z,99788.67
2018-09-03T05:50:24.377Z,99789.00
2018-09-03T05:51:59.788Z,99790.80
2018-09-03T05:53:35.346Z,99791.73
2018-09-03T05:55:10.825Z,99797.36
2018-09-03T05:56:46.284Z,99804.38
2018-09-03T05:58:22.422Z,99801.08
2018-09-03T05:59:57.877Z,99805.77
2018-09-03T06:01:33.349Z,99809.45
2018-09-03T06:03:09.938Z,99817.95
2018-09-03T06:04:45.480Z,99815.39
2018-09-03T06:06:21.510Z,99818.31
2018-09-03T06:07:56.975Z,99821.70
2018-09-03T06:09:32.484Z,99822.34
2018-09-03T06:11:08.158Z,99821.55
2018-09-03T06:12:43.582Z,99828.06
2018-09-03T06:14:18.997Z,99827.91
2018-09-03T06:15:54.760Z,99827.73
2018-09-03T06:17:30.228Z,99827.25
2018-09-03T06:19:05.728Z,99826.25
2018-09-03T06:20:41.699Z,99830.91
2018-09-03T06:22:17.252Z,99834.09
2018-09-03T06:23:52.698Z,99831.39
2018-09-03T06:25:29.032Z,99825.59
2018-09-03T06:27:10.071Z,99816.78
2018-09-03T06:28:45.808Z,99812.46
2018-09-03T06:30:21.319Z,99818.91
2018-09-03T06:31:56.816Z,99825.25
2018-09-03T06:33:32.308Z,99827.42
2018-09-03T06:35:09.043Z,99817.04
2018-09-03T06:36:44.597Z,99817.77
2018-09-03T06:38:20.092Z,99815.19
2018-09-03T06:39:55.518Z,99814.64
2018-09-03T06:41:31.001Z,99812.12
2018-09-03T06:43:06.932Z,99811.42
2018-09-03T06:44:42.991Z,99826.77
2018-09-03T06:46:19.010Z,99821.69
2018-09-03T06:47:54.502Z,99833.67
2018-09-03T06:49:30.073Z,99857.38
2018-09-03T06:51:05.721Z,99861.78
2018-09-03T06:52:41.343Z,99858.16
2018-09-03T06:54:16.750Z,99873.27
2018-09-03T06:55:52.492Z,99883.98
2018-09-03T06:57:27.985Z,99888.70
2018-09-03T06:59:03.450Z,99888.52
2018-09-03T07:00:38.880Z,99881.89
2018-09-03T07:02:14.594Z,99879.88
2018-09-03T07:03:50.161Z,99882.56
2018-09-03T07:05:25.852Z,99890.08
2018-09-03T07:07:01.279Z,99901.80
2018-09-03T07:08:37.277Z,99910.37
2018-09-03T07:10:12.722Z,99913.22
2018-09-03T07:11:48.177Z,99917.64
2018-09-03T07:13:23.624Z,99917.45
2018-09-03T07:14:59.101Z,99925.08
2018-09-03T07:16:34.673Z,99931.45
2018-09-03T07:18:10.464Z,99930.78
2018-09-03T07:19:46.001Z,99930.86
2018-09-03T07:21:21.423Z,99935.00
2018-09-03T07:22:56.961Z,99934.68
2018-09-03T07:24:33.260Z,99946.48
2018-09-03T07:26:08.764Z,99948.48
2018-09-03T07:27:44.409Z,99945.27
2018-09-03T07:29:20.576Z,99950.44
2018-09-03T07:30:57.342Z,99948.02
2018-09-03T07:32:32.945Z,99960.61
2018-09-03T07:34:08.410Z,99956.77
2018-09-03T07:35:43.857Z,99961.36
2018-09-03T07:37:20.002Z,99964.69
2018-09-03T07:38:56.170Z,99961.88
2018-09-03T07:40:31.810Z,99968.06
2018-09-03T07:42:07.561Z,99970.53
2018-09-03T07:43:43.019Z,99972.55
2018-09-03T07:45:18.583Z,99977.98
2018-09-03T07:46:54.400Z,99975.19
2018-09-03T07:48:31.846Z,99972.61
2018-09-03T07:50:07.559Z,99980.88
2018-09-03T07:51:43.256Z,99975.63
2018-09-03T07:53:20.001Z,99975.86
2018-09-03T07:54:55.539Z,99969.51
2018-09-03T07:56:31.075Z,99974.00
2018-09-03T07:58:06.899Z,99971.95
2018-09-03T07:59:42.445Z,99975.16
2018-09-03T08:01:18.127Z,99978.36
2018-09-03T08:02:54.781Z,99973.88
2018-09-03T08:04:30.265Z,99978.59
2018-09-03T08:06:06.388Z,99977.02
2018-09-03T08:07:41.897Z,99977.02
2018-09-03T08:09:17.439Z,99985.55
2018-09-03T08:10:52.876Z,99980.70
2018-09-03T08:12:28.337Z,99973.50
2018-09-03T08:14:03.877Z,99979.30
2018-09-03T08:15:39.357Z,99973.47
2018-09-03T08:17:15.018Z,99981.48
2018-09-03T08:18:50.594Z,99986.78
2018-09-03T08:20:26.048Z,99993.08
2018-09-03T08:22:02.061Z,99993.82
2018-09-03T08:23:37.532Z,99993.42
2018-09-03T08:25:13.040Z,99983.06
2018-09-03T08:26:49.503Z,99969.95
2018-09-03T08:28:25.000Z,99965.13
2018-09-03T08:30:00.492Z,99955.78
2018-09-03T08:31:35.986Z,99948.54
2018-09-03T08:33:11.740Z,99956.33
2018-09-03T08:34:48.737Z,99964.77
2018-09-03T08:36:25.193Z,99962.26
2018-09-03T08:38:00.733Z,99960.64
2018-09-03T08:39:36.173Z,99954.81
2018-09-03T08:41:11.650Z,99963.98
2018-09-03T08:42:47.095Z,99972.06
2018-09-03T08:44:22.577Z,99965.48
2018-09-03T08:45:57.983Z,99973.50
2018-09-03T08:47:33.426Z,99972.59
2018-09-03T08:49:09.548Z,99974.97
2018-09-03T08:50:45.972Z,99981.00
2018-09-03T08:52:21.416Z,99980.92
2018-09-03T08:53:58.452Z,99984.50
2018-09-03T08:55:33.965Z,99984.08
2018-09-03T08:57:09.454Z,99979.97
2018-09-03T08:58:45.009Z,99970.33
2018-09-03T09:00:20.460Z,99973.91
2018-09-03T09:01:56.076Z,99972.80
2018-09-03T09:03:36.855Z,99974.75
2018-09-03T09:05:12.653Z,99982.59
2018-09-03T09:06:56.170Z,99990.52
2018-09-03T09:08:31.622Z,99991.65
2018-09-03T09:10:07.145Z,99987.98
2018-09-03T09:11:42.878Z,99985.27
2018-09-03T09:13:19.688Z,99981.27
2018-09-03T09:14:55.551Z,99974.92
2018-09-03T09:16:31.456Z,99972.98
2018-09-03T09:18:07.477Z,99978.16
2018-09-03T09:19:43.329Z,99980.03
2018-09-03T09:21:20.086Z,99988.58
2018-09-03T09:22:55.963Z,99981.48
2018-09-03T09:24:31.890Z,99979.47
2018-09-03T09:26:07.760Z,99970.45
2018-09-03T09:27:43.651Z,99969.48
2018-09-03T09:29:21.324Z,99966.43
2018-09-03T09:30:57.188Z,99954.66
2018-09-03T09:32:35.040Z,99956.97
2018-09-03T09:34:11.036Z,99953.48
2018-09-03T09:35:52.537Z,99950.36
2018-09-03T09:37:28.954Z,99943.22
2018-09-03T09:39:08.810Z,99943.14
2018-09-03T09:40:48.091Z,99940.12
2018-09-03T09:42:24.219Z,99936.35
2018-09-03T09:44:00.220Z,99936.78
2018-09-03T09:45:36.171Z,99941.52
2018-09-03T09:47:14.055Z,99939.70
2018-09-03T09:48:50.906Z,99949.58
2018-09-03T09:50:26.819Z,99955.00
2018-09-03T09:52:02.665Z,99954.46
2018-09-03T09:53:38.555Z,99959.09
2018-09-03T09:55:15.148Z,99966.47
2018-09-03T09:56:51.110Z,99963.81
2018-09-03T09:58:28.596Z,99973.92
2018-09-03T10:00:04.921Z,99957.53
2018-09-03T10:01:40.806Z,99951.19
2018-09-03T10:03:17.116Z,99958.34
2018-09-03T10:04:53.018Z,99951.92
2018-09-03T10:06:29.206Z,99958.41
2018-09-03T10:08:06.418Z,99959.31
2018-09-03T10:09:42.490Z,99960.66
2018-09-03T10:11:18.911Z,99956.78
2018-09-03T10:12:59.741Z,99955.63
2018-09-03T10:14:35.903Z,99937.72
2018-09-03T10:16:12.231Z,99931.11
2018-09-03T10:17:48.249Z,99934.83
2018-09-03T10:19:24.365Z,99936.80
2018-09-03T10:21:00.299Z,99941.09
2018-09-03T10:22:37.459Z,99939.25
2018-09-03T10:24:13.377Z,99935.33
2018-09-03T10:25:49.401Z,99932.71
2018-09-03T10:27:25.505Z,99929.59
2018-09-03T10:29:03.506Z,99942.70
2018-09-03T10:30:39.429Z,99933.80
2018-09-03T10:32:15.643Z,99934.29
2018-09-03T10:33:51.834Z,99930.13
2018-09-03T10:35:27.689Z,99925.91
2018-09-03T10:37:03.569Z,99924.06
2018-09-03T10:38:54.438Z,99917.58
2018-09-03T10:40:30.305Z,99916.56
2018-09-03T10:42:06.233Z,99920.77
2018-09-03T10:43:42.110Z,99921.44
2018-09-03T10:46:52.706Z,99920.17
2018-09-03T10:48:28.967Z,99911.88
2018-09-03T10:50:06.155Z,99902.84
2018-09-03T10:51:42.348Z,99905.71
2018-09-03T10:53:18.337Z,99902.98
2018-09-03T10:54:54.187Z,99885.11
2018-09-03T10:56:30.051Z,99890.05
2018-09-03T10:58:07.572Z,99884.59
2018-09-03T10:59:44.680Z,99885.02
2018-09-03T11:01:20.681Z,99891.59
2018-09-03T11:02:57.106Z,99875.97
2018-09-03T11:04:32.774Z,99875.58
2018-09-03T11:06:08.553Z,99844.88
2018-09-03T11:07:44.014Z,99811.88
2018-09-03T11:09:19.858Z,99787.44
2018-09-03T11:10:55.370Z,99756.53
2018-09-03T11:12:31.622Z,99734.75
2018-09-03T11:14:09.220Z,99729.64
2018-09-03T11:15:44.658Z,99751.41
2018-09-03T11:17:21.238Z,99760.61
2018-09-03T11:18:57.067Z,99778.80
2018-09-03T11:20:33.493Z,99788.26
2018-09-03T11:22:12.377Z,99798.92
2018-09-03T11:23:49.523Z,99802.52
2018-09-03T11:25:28.193Z,99794.14
2018-09-03T11:27:05.770Z,99797.67
2018-09-03T11:28:42.957Z,99799.63
2018-09-03T11:30:20.907Z,99792.89
2018-09-03T11:31:56.393Z,99783.07
2018-09-03T11:33:33.907Z,99773.43
2018-09-03T11:35:09.402Z,99772.16
2018-09-03T11:36:46.841Z,99769.59
2018-09-03T11:38:22.359Z,99772.84
2018-09-03T11:39:57.816Z,99773.08
2018-09-03T11:41:35.069Z,99769.30
2018-09-03T11:43:12.889Z,99769.12
2018-09-03T11:44:48.474Z,99769.21
2018-09-03T11:46:23.931Z,99766.61
2018-09-03T11:47:59.359Z,99770.26
2018-09-03T11:49:36.850Z,99774.24
2018-09-03T11:51:16.423Z,99774.95
2018-09-03T11:52:54.773Z,99789.25
2018-09-03T11:54:31.978Z,99792.55
2018-09-03T11:56:08.163Z,99791.88
2018-09-03T11:57:45.226Z,99793.55
2018-09-03T11:59:20.808Z,99795.80
2018-09-03T12:01:00.438Z,99801.84
2018-09-03T12:02:37.704Z,99792.44
2018-09-03T12:04:13.141Z,99791.91
2018-09-03T12:05:49.759Z,99789.91
2018-09-03T12:07:28.490Z,99785.81
2018-09-03T12:09:08.116Z,99797.98
2018-09-03T12:10:44.154Z,99804.64
2018-09-03T12:12:21.223Z,99804.13
2018-09-03T12:13:57.920Z,99802.47
2018-09-03T12:15:37.849Z,99806.41
2018-09-03T12:17:13.262Z,99801.60
2018-09-03T12:18:49.217Z,99799.97
2018-09-03T12:20:24.769Z,99793.14
2018-09-03T12:22:00.394Z,99792.88
2018-09-03T12:23:35.934Z,99794.14
2018-09-03T12:25:11.467Z,99792.19
2018-09-03T12:26:47.127Z,99787.13
2018-09-03T12:28:22.589Z,99781.70
2018-09-03T12:29:58.129Z,99783.92
2018-09-03T12:31:33.662Z,99778.63
2018-09-03T12:33:09.244Z,99748.27
2018-09-03T12:34:45.058Z,99776.72
2018-09-03T12:36:20.538Z,99775.70
2018-09-03T12:37:56.125Z,99768.41
2018-09-03T12:39:31.673Z,99770.98
2018-09-03T12:41:07.924Z,99772.87
2018-09-03T12:42:43.452Z,99776.17
2018-09-03T12:44:18.914Z,99773.33
2018-09-03T12:45:59.900Z,99769.55
2018-09-03T12:47:35.964Z,99773.46
2018-09-03T12:49:12.059Z,99776.46
2018-09-03T12:50:47.602Z,99776.17
2018-09-03T12:52:23.249Z,99780.71
2018-09-03T12:53:59.005Z,99782.97
2018-09-03T12:55:35.042Z,99777.55
2018-09-03T12:57:11.334Z,99780.25
2018-09-03T12:58:46.856Z,99780.33
2018-09-03T13:00:22.349Z,99776.46
2018-09-03T13:01:57.848Z,99773.65
2018-09-03T13:03:33.405Z,99776.28
2018-09-03T13:05:08.868Z,99771.02
2018-09-03T13:06:44.478Z,99772.90
2018-09-03T13:08:20.780Z,99775.80
2018-09-03T13:09:56.970Z,99775.71
2018-09-03T13:11:33.071Z,99770.13
2018-09-03T13:13:09.915Z,99767.77
2018-09-03T13:14:45.736Z,99765.73
2018-09-03T13:16:21.176Z,99768.70
2018-09-03T13:17:58.036Z,99762.66
2018-09-03T13:19:33.542Z,99764.58
2018-09-03T13:21:10.250Z,99770.28
2018-09-03T13:22:45.931Z,99770.95
2018-09-03T13:24:22.128Z,99763.19
2018-09-03T13:25:58.100Z,99763.09
2018-09-03T13:27:33.920Z,99759.44
2018-09-03T13:30:51.957Z,99758.35
2018-09-03T13:32:28.558Z,99759.31
2018-09-03T13:34:05.336Z,99760.64
2018-09-03T13:35:42.016Z,99757.15
2018-09-03T13:37:20.086Z,99753.40
2018-09-03T13:38:55.921Z,99751.53
2018-09-03T13:40:31.765Z,99755.11
2018-09-03T13:42:07.271Z,99747.16
2018-09-03T13:43:42.718Z,99745.90
2018-09-03T13:45:18.292Z,99746.08
2018-09-03T13:46:53.724Z,99740.92
2018-09-03T13:48:29.258Z,99751.22
2018-09-03T13:50:04.873Z,99744.26
2018-09-03T13:51:40.545Z,99734.78
2018-09-03T13:53:16.098Z,99735.08
2018-09-03T13:54:51.708Z,99740.66
2018-09-03T13:56:27.187Z,99736.56
2018-09-03T13:58:02.623Z,99737.09
2018-09-03T13:59:39.806Z,99735.11
2018-09-03T14:01:15.364Z,99729.09
2018-09-03T14:02:50.850Z,99733.55
2018-09-03T14:04:27.086Z,99729.72
2018-09-03T14:06:02.741Z,99723.00
2018-09-03T14:07:38.512Z,99726.58
2018-09-03T14:09:14.146Z,99724.95
2018-09-03T14:10:49.807Z,99728.45
2018-09-03T14:12:25.350Z,99723.50
2018-09-03T14:14:01.389Z,99720.02
2018-09-03T14:15:38.901Z,99716.84
2018-09-03T14:17:14.439Z,99713.59
2018-09-03T14:18:50.346Z,99713.92
2018-09-03T14:20:26.780Z,99714.81
2018-09-03T14:22:05.266Z,99712.78
2018-09-03T14:23:40.905Z,99711.53
2018-09-03T14:25:16.447Z,99708.22
2018-09-03T14:26:52.011Z,99706.45
2018-09-03T14:28:32.098Z,99706.64
2018-09-03T14:30:09.901Z,99703.85
2018-09-03T14:31:46.008Z,99697.60
2018-09-03T14:33:21.527Z,99693.66
2018-09-03T14:34:57.709Z,99698.89
2018-09-03T14:36:33.190Z,99697.47
2018-09-03T14:38:08.732Z,99692.14
2018-09-03T14:39:44.263Z,99687.55
2018-09-03T14:41:20.160Z,99689.41
2018-09-03T14:42:55.644Z,99681.57
2018-09-03T14:44:31.093Z,99682.36
2018-09-03T14:46:06.885Z,99677.30
2018-09-03T14:47:42.498Z,99676.72
2018-09-03T14:49:17.957Z,99682.91
2018-09-03T14:50:53.540Z,99674.09
2018-09-03T14:52:29.395Z,99683.17
2018-09-03T14:54:06.073Z,99683.02
2018-09-03T14:55:41.673Z,99683.41
2018-09-03T14:57:17.821Z,99680.45
2018-09-03T14:58:53.332Z,99685.05
2018-09-03T15:00:29.551Z,99680.79
2018-09-03T15:02:09.112Z,99677.11
2018-09-03T15:03:45.308Z,99682.73
2018-09-03T15:05:20.892Z,99680.20
2018-09-03T15:06:56.383Z,99686.50
2018-09-03T15:08:32.004Z,99678.99
2018-09-03T15:10:07.448Z,99680.82
2018-09-03T15:11:43.033Z,99679.64
2018-09-03T15:13:18.670Z,99681.00
2018-09-03T15:14:54.207Z,99686.77
2018-09-03T15:16:33.364Z,99681.95
2018-09-03T15:18:09.153Z,99682.38
2018-09-03T15:19:44.592Z,99683.25
2018-09-03T15:21:21.349Z,99685.05
2018-09-03T15:22:56.852Z,99679.85
2018-09-03T15:24:33.043Z,99680.49
2018-09-03T15:26:09.423Z,99682.16
2018-09-03T15:27:46.091Z,99682.72
2018-09-03T15:29:22.367Z,99683.05
2018-09-03T15:30:58.001Z,99683.55
2018-09-03T15:32:33.601Z,99675.91
2018-09-03T15:34:11.182Z,99686.32
2018-09-03T15:35:46.796Z,99684.85
2018-09-03T15:37:22.896Z,99688.75
2018-09-03T15:38:58.957Z,99683.41
2018-09-03T15:40:36.938Z,99690.59
2018-09-03T15:42:12.467Z,99688.67
2018-09-03T15:43:48.255Z,99694.30
2018-09-03T15:45:24.718Z,99694.04
2018-09-03T15:48:43.286Z,99691.19
2018-09-03T15:50:19.121Z,99687.06
2018-09-03T15:51:56.038Z,99687.16
2018-09-03T15:53:32.693Z,99687.93
2018-09-03T15:55:08.217Z,99689.79
2018-09-03T15:56:43.708Z,99696.89
2018-09-03T15:58:19.273Z,99698.75
2018-09-03T15:59:56.998Z,99694.34
2018-09-03T16:01:32.510Z,99696.09
2018-09-03T16:03:08.519Z,99692.15
2018-09-03T16:04:47.762Z,99698.81
2018-09-03T16:06:24.051Z,99698.75
2018-09-03T16:08:00.020Z,99701.52
2018-09-03T16:09:36.153Z,99693.39
2018-09-03T16:11:12.966Z,99693.23
2018-09-03T16:12:48.640Z,99687.77
2018-09-03T16:14:24.417Z,99685.67
2018-09-03T16:16:01.256Z,99678.57
2018-09-03T16:17:38.200Z,99691.70
2018-09-03T16:19:14.444Z,99690.63
2018-09-03T16:20:50.388Z,99687.17
2018-09-03T16:22:25.866Z,99697.52
2018-09-03T16:24:01.792Z,99704.94
2018-09-03T16:25:37.426Z,99699.21
2018-09-03T16:27:12.945Z,99696.67
2018-09-03T16:28:48.377Z,99696.97
2018-09-03T16:30:25.849Z,99691.06
2018-09-03T16:32:02.595Z,99697.43
2018-09-03T16:33:38.095Z,99688.44
2018-09-03T16:35:13.579Z,99691.66
2018-09-03T16:36:49.056Z,99689.13
2018-09-03T16:38:24.577Z,99684.40
2018-09-03T16:40:00.044Z,99685.27
2018-09-03T16:41:36.126Z,99681.37
2018-09-03T16:43:11.780Z,99691.91
2018-09-03T16:44:47.218Z,99687.81
2018-09-03T16:46:22.674Z,99683.77
2018-09-03T16:47:58.219Z,99677.77
2018-09-03T16:49:33.641Z,99684.05
2018-09-03T16:51:09.416Z,99686.17
2018-09-03T16:52:46.796Z,99683.87
2018-09-03T16:54:22.414Z,99688.13
2018-09-03T16:55:58.850Z,99684.72
2018-09-03T16:57:35.234Z,99684.11
2018-09-03T16:59:10.726Z,99680.17
2018-09-03T17:00:46.447Z,99686.05
2018-09-03T17:02:22.206Z,99685.12
2018-09-03T17:03:59.005Z,99688.02
2018-09-03T17:05:34.586Z,99685.47
2018-09-03T17:07:10.076Z,99684.91
2018-09-03T17:08:45.604Z,99684.55
2018-09-03T17:10:21.179Z,99682.44
2018-09-03T17:11:56.713Z,99685.26
2018-09-03T17:13:32.209Z,99683.89
2018-09-03T17:15:07.895Z,99681.20
2018-09-03T17:16:43.658Z,99678.06
2018-09-03T17:18:19.304Z,99685.35
2018-09-03T17:19:54.775Z,99676.11
2018-09-03T17:21:33.481Z,99680.17
2018-09-03T17:23:08.988Z,99682.58
2018-09-03T17:24:44.522Z,99679.58
2018-09-03T17:26:19.962Z,99686.75
2018-09-03T17:27:55.402Z,99687.48
2018-09-03T17:29:31.687Z,99687.84
2018-09-03T17:31:07.641Z,99689.09
2018-09-03T17:32:43.754Z,99687.31
2018-09-03T17:34:19.261Z,99689.80
2018-09-03T17:35:55.633Z,99692.58
2018-09-03T17:37:32.289Z,99690.41
2018-09-03T17:39:08.427Z,99686.50
2018-09-03T17:40:43.941Z,99693.81
2018-09-03T17:42:19.540Z,99695.02
2018-09-03T17:43:55.390Z,99695.21
2018-09-03T17:45:30.963Z,99694.87
2018-09-03T17:47:06.446Z,99691.91
2018-09-03T17:48:41.954Z,99692.89
2018-09-03T17:50:17.569Z,99692.62
2018-09-03T17:51:53.412Z,99649.31
2018-09-03T17:53:30.107Z,99693.83
2018-09-03T17:55:06.033Z,99692.15
2018-09-03T17:56:41.644Z,99701.09
2018-09-03T17:58:17.224Z,99709.56
2018-09-03T17:59:52.816Z,99710.81
2018-09-03T18:01:28.597Z,99672.85
2018-09-03T18:03:04.215Z,99719.73
2018-09-03T18:04:39.836Z,99719.73
2018-09-03T18:06:15.391Z,99716.81
2018-09-03T18:07:51.117Z,99720.88
2018-09-03T18:09:26.560Z,99723.74
2018-09-03T18:11:01.996Z,99720.81
2018-09-03T18:12:39.082Z,99719.73
2018-09-03T18:14:14.579Z,99719.81
2018-09-03T18:15:51.153Z,99719.27
2018-09-03T18:17:27.105Z,99715.36
2018-09-03T18:19:02.820Z,99715.89
2018-09-03T18:20:38.970Z,99715.41
2018-09-03T18:22:14.782Z,99714.73
2018-09-03T18:23:50.322Z,99720.44
2018-09-03T18:25:25.970Z,99717.70
2018-09-03T18:27:01.541Z,99714.83
2018-09-03T18:28:37.070Z,99709.32
2018-09-03T18:30:13.224Z,99705.39
2018-09-03T18:31:48.719Z,99710.81
2018-09-03T18:33:24.517Z,99712.05
2018-09-03T18:35:00.235Z,99712.20
2018-09-03T18:36:35.757Z,99710.36
2018-09-03T18:38:11.289Z,99698.18
2018-09-03T18:39:46.868Z,99705.70
2018-09-03T18:41:22.375Z,99710.77
2018-09-03T18:42:59.311Z,99710.02
2018-09-03T18:44:35.242Z,99708.74
2018-09-03T18:46:11.759Z,99708.42
2018-09-03T18:47:48.013Z,99709.45
2018-09-03T18:49:26.006Z,99712.98
2018-09-03T18:51:01.492Z,99705.70
2018-09-03T18:52:37.732Z,99709.33
2018-09-03T18:54:13.378Z,99709.48